Time;durP1;ratioP1;P1;durP2;ratioP2;P2;SDS_P1;SDS_P2;PMS_P1;PMS_P2;Temp;Humidity;BMP_temperature;BMP_pressure;BME280_temperature;BME280_humidity;BME280_pressure;Samples;Min_cycle;Max_cycle;Signal;HPM_P1;HPM_P2
2021/04/01 00:00:23;;;;;;;6.90;4.70;;;12.00;69.50;;;;;;5093594;28;20428;-78
2021/04/01 00:02:50;;;;;;;7.37;4.60;;;12.00;69.10;;;;;;5093524;28;20444;-78
2021/04/01 00:05:17;;;;;;;6.30;4.20;;;12.00;69.00;;;;;;5094269;28;20479;-78
2021/04/01 00:07:44;;;;;;;8.67;4.73;;;12.00;69.10;;;;;;5093241;28;20853;-78
2021/04/01 00:10:13;;;;;;;9.27;5.23;;;12.00;69.70;;;;;;5093121;28;20551;-78
2021/04/01 00:12:40;;;;;;;7.30;4.90;;;11.90;68.90;;;;;;5093549;28;20429;-78
2021/04/01 00:15:09;;;;;;;9.90;5.87;;;11.90;69.30;;;;;;5093178;28;20432;-78
2021/04/01 00:17:36;;;;;;;7.60;4.50;;;11.80;68.80;;;;;;5093156;28;20432;-78
2021/04/01 00:20:04;;;;;;;7.23;4.20;;;11.70;70.30;;;;;;5093340;28;20517;-78
2021/04/01 00:22:30;;;;;;;6.00;4.80;;;11.70;71.20;;;;;;5093194;28;20412;-79
2021/04/01 00:24:56;;;;;;;7.70;4.67;;;11.70;72.10;;;;;;5093232;28;20448;-78
2021/04/01 00:27:22;;;;;;;7.20;5.10;;;11.70;69.90;;;;;;5093341;28;20428;-78
2021/04/01 00:29:49;;;;;;;6.10;4.57;;;11.70;69.50;;;;;;5093229;28;20464;-78
2021/04/01 00:32:16;;;;;;;5.50;4.57;;;11.70;70.60;;;;;;5093057;28;20934;-78
2021/04/01 00:34:42;;;;;;;8.37;5.07;;;11.70;71.40;;;;;;5093253;28;20452;-78
2021/04/01 00:37:09;;;;;;;8.47;5.13;;;11.70;70.00;;;;;;5093072;28;20451;-78
2021/04/01 00:39:35;;;;;;;6.00;4.63;;;11.70;69.90;;;;;;5093129;28;20467;-78
2021/04/01 00:42:03;;;;;;;7.93;5.40;;;11.60;70.50;;;;;;5093189;28;20443;-78
2021/04/01 00:44:29;;;;;;;7.70;5.27;;;11.60;70.80;;;;;;5093156;28;20459;-78
2021/04/01 00:46:56;;;;;;;7.10;4.47;;;11.50;71.30;;;;;;5092598;28;20484;-78
2021/04/01 00:49:23;;;;;;;7.63;4.53;;;11.50;71.90;;;;;;5092747;28;20975;-78
2021/04/01 00:51:49;;;;;;;7.77;4.60;;;11.50;72.30;;;;;;5092760;28;20959;-78
2021/04/01 00:54:16;;;;;;;4.80;3.43;;;11.50;73.10;;;;;;5093101;28;20405;-78
2021/04/01 00:56:42;;;;;;;11.83;4.50;;;11.40;73.60;;;;;;5093055;28;20425;-78
2021/04/01 00:59:09;;;;;;;8.50;4.20;;;11.40;74.50;;;;;;5095536;28;20822;-78
2021/04/01 01:01:42;;;;;;;8.07;4.80;;;11.30;74.30;;;;;;5096830;28;20450;-78
2021/04/01 01:04:09;;;;;;;6.43;4.20;;;11.30;74.60;;;;;;5096516;28;20523;-78
2021/04/01 01:06:37;;;;;;;7.53;5.13;;;11.20;75.00;;;;;;5096652;28;20479;-78
2021/04/01 01:09:04;;;;;;;6.87;4.40;;;11.20;74.40;;;;;;5096607;28;20474;-78
2021/04/01 01:11:32;;;;;;;7.50;5.00;;;11.20;74.90;;;;;;5096675;28;20451;-78
2021/04/01 01:13:59;;;;;;;9.43;4.67;;;11.20;75.70;;;;;;5096627;28;20458;-78
2021/04/01 01:16:25;;;;;;;10.00;5.30;;;11.20;75.70;;;;;;5096543;28;20444;-78
2021/04/01 01:18:51;;;;;;;6.80;5.07;;;11.10;75.10;;;;;;5096420;28;20475;-78
2021/04/01 01:21:18;;;;;;;7.23;4.67;;;11.10;75.20;;;;;;5096539;28;20409;-78
2021/04/01 01:23:46;;;;;;;5.87;4.80;;;11.20;75.50;;;;;;5097247;28;20444;-78
2021/04/01 01:26:13;;;;;;;8.17;5.10;;;11.20;76.30;;;;;;5095987;28;20487;-78
2021/04/01 01:28:39;;;;;;;7.93;5.00;;;11.20;76.30;;;;;;5096260;28;20471;-78
2021/04/01 01:31:05;;;;;;;8.00;6.10;;;11.10;76.80;;;;;;5096348;28;20413;-78
2021/04/01 01:33:39;;;;;;;11.20;5.20;;;11.10;77.50;;;;;;5096210;28;20444;-78
2021/04/01 01:36:07;;;;;;;6.37;5.07;;;11.10;77.10;;;;;;5096177;28;20436;-78
2021/04/01 01:38:33;;;;;;;7.03;4.83;;;11.10;77.50;;;;;;5096504;28;20472;-78
2021/04/01 01:40:59;;;;;;;8.60;5.40;;;11.00;77.50;;;;;;5096300;28;20444;-78
2021/04/01 01:43:26;;;;;;;8.00;5.07;;;11.00;77.70;;;;;;5096036;28;20505;-78
2021/04/01 01:45:53;;;;;;;8.47;4.83;;;11.00;78.10;;;;;;5095964;28;20476;-78
2021/04/01 01:48:19;;;;;;;7.93;5.60;;;11.00;78.10;;;;;;5095354;28;20480;-78
2021/04/01 01:50:46;;;;;;;7.80;5.17;;;10.90;78.20;;;;;;5095645;28;20428;-78
2021/04/01 01:53:12;;;;;;;7.90;5.50;;;10.90;78.90;;;;;;5095828;28;20505;-78
2021/04/01 01:55:40;;;;;;;6.97;4.87;;;10.90;78.90;;;;;;5095835;28;20528;-79
2021/04/01 01:58:08;;;;;;;7.60;6.23;;;10.90;79.70;;;;;;5095686;28;20439;-78
2021/04/01 02:00:40;;;;;;;14.53;5.30;;;10.80;79.60;;;;;;5095436;28;20976;-79
2021/04/01 02:03:08;;;;;;;8.20;5.10;;;10.70;80.50;;;;;;5095450;28;20927;-79
2021/04/01 02:05:36;;;;;;;9.80;5.57;;;10.70;80.90;;;;;;5095576;28;20486;-78
2021/04/01 02:08:02;;;;;;;6.80;4.50;;;10.70;82.20;;;;;;5095196;28;20974;-78
2021/04/01 02:10:32;;;;;;;10.27;5.37;;;10.70;81.60;;;;;;5095088;28;20432;-78
2021/04/01 02:12:59;;;;;;;11.53;5.37;;;10.70;82.20;;;;;;5095236;28;20428;-78
2021/04/01 02:15:28;;;;;;;10.67;4.77;;;10.70;82.50;;;;;;5095683;28;20919;-78
2021/04/01 02:18:06;;;;;;;13.30;5.90;;;10.70;82.00;;;;;;5095377;28;20458;-78
2021/04/01 02:20:39;;;;;;;5.13;4.37;;;10.70;82.10;;;;;;5095148;28;20430;-78
2021/04/01 02:23:05;;;;;;;8.60;5.70;;;10.70;83.00;;;;;;5095348;28;20429;-78
2021/04/01 02:25:32;;;;;;;7.10;5.20;;;10.70;84.30;;;;;;5094826;28;21110;-79
2021/04/01 02:27:58;;;;;;;7.30;5.30;;;10.60;84.70;;;;;;5095109;28;20447;-78
2021/04/01 02:30:24;;;;;;;6.50;5.70;;;10.70;84.30;;;;;;5095162;28;20478;-78
2021/04/01 02:32:51;;;;;;;8.33;4.47;;;10.60;84.20;;;;;;5094837;28;20444;-78
2021/04/01 02:35:18;;;;;;;6.30;5.00;;;10.60;84.60;;;;;;5095004;28;20447;-78
2021/04/01 02:37:44;;;;;;;7.37;5.07;;;10.70;84.60;;;;;;5094980;28;20428;-78
2021/04/01 02:40:12;;;;;;;6.43;4.87;;;10.70;83.50;;;;;;5094931;28;20458;-78
2021/04/01 02:42:39;;;;;;;6.97;5.50;;;10.70;83.60;;;;;;5094558;28;20466;-78
2021/04/01 02:45:06;;;;;;;8.30;5.40;;;10.70;83.90;;;;;;5094396;28;20448;-78
2021/04/01 02:47:32;;;;;;;6.27;5.23;;;10.70;83.60;;;;;;5094272;28;20990;-78
2021/04/01 02:49:59;;;;;;;6.13;5.33;;;10.70;84.70;;;;;;5094457;28;20990;-78
2021/04/01 02:52:26;;;;;;;6.27;5.23;;;10.70;83.60;;;;;;5094705;28;20438;-78
2021/04/01 02:54:52;;;;;;;7.90;5.10;;;10.70;83.60;;;;;;5094595;28;20451;-78
2021/04/01 02:57:19;;;;;;;11.63;6.30;;;10.70;82.40;;;;;;5094644;28;20455;-78
2021/04/01 02:59:46;;;;;;;6.40;4.80;;;10.80;83.10;;;;;;5094236;28;20502;-78
2021/04/01 03:02:13;;;;;;;9.33;5.90;;;10.80;83.10;;;;;;5094679;28;20413;-78
2021/04/01 03:04:39;;;;;;;6.40;5.30;;;10.80;83.00;;;;;;5094189;28;21018;-78
2021/04/01 03:07:06;;;;;;;9.80;5.57;;;10.70;83.20;;;;;;5094383;28;20475;-78
2021/04/01 03:09:33;;;;;;;6.57;4.80;;;10.70;83.40;;;;;;5094318;28;20516;-78
2021/04/01 03:11:59;;;;;;;10.57;5.53;;;10.60;83.80;;;;;;5094345;28;20443;-78
2021/04/01 03:14:25;;;;;;;9.03;5.53;;;10.50;85.00;;;;;;5094048;28;20424;-78
2021/04/01 03:16:52;;;;;;;5.67;5.07;;;10.50;87.00;;;;;;5094786;28;20440;-78
2021/04/01 03:19:18;;;;;;;6.80;4.90;;;10.40;86.10;;;;;;5093852;28;21005;-78
2021/04/01 03:21:45;;;;;;;7.13;5.20;;;10.40;86.40;;;;;;5093345;28;20428;-78
2021/04/01 03:24:12;;;;;;;5.27;4.77;;;10.40;86.60;;;;;;5094928;28;20467;-78
2021/04/01 03:26:40;;;;;;;9.53;5.30;;;10.50;86.00;;;;;;5093977;28;20483;-78
2021/04/01 03:29:07;;;;;;;8.50;5.63;;;10.40;86.10;;;;;;5093999;28;20480;-78
2021/04/01 03:31:33;;;;;;;7.63;5.60;;;10.40;87.20;;;;;;5093989;28;20826;-78
2021/04/01 03:33:59;;;;;;;6.80;5.20;;;10.30;87.60;;;;;;5093681;28;20920;-78
2021/04/01 03:36:26;;;;;;;7.30;5.27;;;10.30;88.20;;;;;;5093925;28;20505;-78
2021/04/01 03:38:53;;;;;;;7.30;5.77;;;10.20;89.20;;;;;;5093765;28;20492;-78
2021/04/01 03:41:20;;;;;;;8.90;5.93;;;10.20;89.10;;;;;;5094382;28;20448;-78
2021/04/01 03:43:47;;;;;;;9.60;5.47;;;10.10;90.00;;;;;;5093873;28;20481;-78
2021/04/01 03:46:13;;;;;;;8.00;5.33;;;10.10;90.10;;;;;;5093492;28;20840;-78
2021/04/01 03:48:40;;;;;;;6.70;5.13;;;10.10;90.70;;;;;;5093783;28;20468;-78
2021/04/01 03:51:07;;;;;;;6.90;5.20;;;10.00;90.70;;;;;;5093721;28;20450;-78
2021/04/01 03:53:33;;;;;;;6.17;4.97;;;10.00;91.30;;;;;;5094122;28;20455;-78
2021/04/01 03:55:59;;;;;;;8.70;5.67;;;9.90;91.90;;;;;;5093687;28;20439;-78
2021/04/01 03:58:48;;;;;;;12.37;6.27;;;9.90;91.90;;;;;;5093208;28;20873;-78
2021/04/01 04:04:11;;;;;;;11.50;5.90;;;9.80;92.60;;;;;;5093414;28;20459;-78
2021/04/01 04:09:41;;;;;;;14.40;5.70;;;9.80;93.00;;;;;;5045386;28;21008;-78
2021/04/01 04:12:16;;;;;;;8.07;5.53;;;9.70;93.10;;;;;;5093239;28;20498;-78
2021/04/01 04:14:43;;;;;;;6.23;4.97;;;9.80;93.70;;;;;;5093465;28;20470;-78
2021/04/01 04:17:11;;;;;;;6.10;5.30;;;9.70;93.00;;;;;;5093331;28;20444;-78
2021/04/01 04:19:38;;;;;;;10.67;6.03;;;9.70;93.20;;;;;;5093286;28;20464;-78
2021/04/01 04:22:05;;;;;;;8.77;6.33;;;9.70;93.80;;;;;;5092887;28;20420;-78
2021/04/01 04:24:34;;;;;;;8.90;5.30;;;9.70;93.60;;;;;;5092931;28;20474;-78
2021/04/01 04:27:09;;;;;;;7.10;5.90;;;9.70;93.80;;;;;;5093256;28;20511;-78
2021/04/01 04:29:36;;;;;;;7.90;5.73;;;9.60;94.40;;;;;;5093240;28;20474;-78
2021/04/01 04:32:02;;;;;;;8.77;5.70;;;9.60;95.20;;;;;;5094150;28;20447;-78
2021/04/01 04:34:29;;;;;;;7.83;5.27;;;9.60;95.50;;;;;;5097372;28;20448;-78
2021/04/01 04:36:55;;;;;;;7.40;5.23;;;9.60;96.10;;;;;;5097331;28;20439;-78
2021/04/01 04:39:22;;;;;;;9.73;5.73;;;9.50;95.60;;;;;;5096906;28;20994;-78
2021/04/01 04:41:48;;;;;;;11.13;6.10;;;9.50;95.80;;;;;;5097280;28;20452;-78
2021/04/01 04:44:14;;;;;;;8.67;5.10;;;9.50;95.90;;;;;;5097174;28;20440;-78
2021/04/01 04:46:40;;;;;;;6.97;4.73;;;9.50;95.80;;;;;;5096964;28;20492;-78
2021/04/01 04:49:06;;;;;;;8.53;4.73;;;9.50;96.30;;;;;;5097049;28;20479;-78
2021/04/01 04:51:34;;;;;;;6.60;5.20;;;9.50;97.00;;;;;;5097668;28;20435;-78
2021/04/01 04:54:02;;;;;;;8.03;5.13;;;9.50;97.20;;;;;;5097014;28;20439;-78
2021/04/01 04:56:31;;;;;;;5.73;4.97;;;9.40;97.70;;;;;;5097004;28;20448;-78
2021/04/01 04:59:01;;;;;;;6.50;5.13;;;9.40;98.00;;;;;;5096868;28;20495;-78
2021/04/01 05:06:56;;;;;;;6.50;5.80;;;9.50;99.20;;;;;;5096431;28;20510;-78
2021/04/01 05:09:23;;;;;;;5.50;4.83;;;9.40;99.90;;;;;;5096796;28;20886;-78
2021/04/01 05:11:49;;;;;;;10.27;6.50;;;9.40;99.90;;;;;;5096670;28;20447;-79
2021/04/01 05:14:15;;;;;;;12.20;7.17;;;9.40;99.90;;;;;;5096637;28;20443;-78
2021/04/01 05:16:42;;;;;;;6.67;5.40;;;9.40;99.90;;;;;;5096318;28;20442;-78
2021/04/01 05:19:10;;;;;;;10.63;7.30;;;9.50;99.90;;;;;;5096112;28;20547;-78
2021/04/01 05:21:43;;;;;;;7.07;5.57;;;9.50;99.90;;;;;;5096517;28;20447;-78
2021/04/01 05:24:11;;;;;;;8.37;4.50;;;9.60;99.90;;;;;;5096504;28;20435;-78
2021/04/01 05:29:26;;;;;;;5.43;4.40;;;9.70;99.90;;;;;;5096103;28;20577;-78
2021/04/01 05:31:52;;;;;;;5.67;3.97;;;9.70;99.70;;;;;;5096079;28;20475;-78
2021/04/01 05:34:19;;;;;;;6.53;4.63;;;9.70;99.40;;;;;;5096332;28;20451;-78
2021/04/01 05:36:46;;;;;;;5.70;4.40;;;9.80;99.80;;;;;;5095812;28;20448;-79
2021/04/01 05:39:17;;;;;;;9.07;5.40;;;9.80;99.80;;;;;;5096099;28;20560;-78
2021/04/01 05:41:48;;;;;;;5.47;4.13;;;9.90;99.90;;;;;;5096340;28;20443;-78
2021/04/01 05:44:18;;;;;;;7.17;4.57;;;9.90;99.90;;;;;;5095201;28;20439;-78
2021/04/01 05:46:52;;;;;;;8.03;4.67;;;10.00;99.00;;;;;;5095735;28;21001;-78
2021/04/01 05:49:31;;;;;;;5.27;4.30;;;10.00;98.60;;;;;;5095926;28;20471;-78
2021/04/01 05:52:28;;;;;;;5.77;4.33;;;10.10;98.70;;;;;;5096213;28;20432;-78
2021/04/01 06:01:32;;;;;;;9.70;6.33;;;10.40;98.50;;;;;;5013636;28;20451;-78
2021/04/01 06:04:08;;;;;;;12.77;7.70;;;10.50;98.40;;;;;;5085303;28;20495;-78
2021/04/01 06:06:39;;;;;;;10.27;6.17;;;10.70;98.30;;;;;;5095590;28;20516;-78
2021/04/01 06:09:11;;;;;;;7.10;5.63;;;10.70;97.80;;;;;;5095594;28;20475;-78
2021/04/01 06:11:39;;;;;;;7.53;5.43;;;10.90;97.40;;;;;;5095582;28;20440;-78
2021/04/01 06:14:11;;;;;;;10.07;5.60;;;10.90;97.10;;;;;;5095594;28;20478;-78
2021/04/01 06:16:39;;;;;;;7.47;6.30;;;11.00;97.10;;;;;;5095341;28;20424;-78
2021/04/01 06:19:07;;;;;;;9.27;5.57;;;11.10;96.80;;;;;;5095313;28;20468;-78
2021/04/01 06:21:39;;;;;;;9.20;5.97;;;11.20;96.70;;;;;;5095190;28;20428;-78
2021/04/01 06:24:21;;;;;;;9.30;5.90;;;11.40;97.30;;;;;;5096270;28;20432;-78
2021/04/01 06:26:55;;;;;;;4.87;4.33;;;11.80;97.80;;;;;;5095617;28;20470;-77
2021/04/01 06:29:24;;;;;;;6.03;5.07;;;12.50;96.20;;;;;;5095467;28;20479;-77
2021/04/01 06:31:53;;;;;;;10.90;5.53;;;13.40;94.30;;;;;;5095231;28;20938;-77
2021/04/01 06:34:35;;;;;;;8.53;5.40;;;14.30;91.90;;;;;;5095351;28;20490;-77
2021/04/01 06:37:04;;;;;;;9.30;5.77;;;15.40;88.60;;;;;;5095256;28;20424;-77
2021/04/01 06:39:30;;;;;;;4.90;4.37;;;16.40;85.40;;;;;;5095344;28;20467;-78
2021/04/01 06:42:19;;;;;;;4.97;4.50;;;17.20;78.70;;;;;;5094723;28;20927;-77
2021/04/01 06:44:53;;;;;;;7.40;4.10;;;17.40;65.70;;;;;;5094827;28;20899;-79
2021/04/01 06:47:22;;;;;;;7.50;5.20;;;17.30;66.10;;;;;;5094379;28;20541;-80
2021/04/01 06:50:04;;;;;;;7.33;5.33;;;17.00;68.90;;;;;;5095025;28;20563;-80
2021/04/01 06:52:35;;;;;;;11.13;5.23;;;16.60;69.50;;;;;;5094813;28;20432;-81
2021/04/01 06:55:14;;;;;;;8.77;5.60;;;16.30;69.50;;;;;;5095099;28;20467;-80
2021/04/01 06:57:55;;;;;;;13.23;6.93;;;16.10;70.50;;;;;;5094874;28;20428;-81
2021/04/01 07:00:33;;;;;;;8.10;6.20;;;16.00;73.30;;;;;;5094720;28;20447;-81
2021/04/01 07:03:05;;;;;;;7.87;6.17;;;15.90;74.70;;;;;;5094657;28;20461;-78
2021/04/01 07:05:42;;;;;;;10.50;7.50;;;15.80;74.70;;;;;;5094310;28;20966;-78
2021/04/01 07:08:11;;;;;;;11.07;6.37;;;15.80;74.80;;;;;;5094456;28;20468;-79
2021/04/01 07:10:46;;;;;;;8.20;6.90;;;15.80;75.60;;;;;;5094181;28;20440;-78
2021/04/01 07:13:18;;;;;;;12.10;6.80;;;15.90;75.30;;;;;;5093540;28;20435;-78
2021/04/01 07:15:47;;;;;;;8.33;7.07;;;16.00;73.90;;;;;;5093787;28;20465;-78
2021/04/01 07:18:27;;;;;;;10.77;6.53;;;16.00;74.40;;;;;;5094087;28;20525;-78
2021/04/01 07:32:21;;;;;;;6.90;6.17;;;16.70;73.00;;;;;;5094184;28;20937;-78
2021/04/01 07:35:02;;;;;;;7.07;5.73;;;16.80;73.10;;;;;;5094009;28;20432;-78
2021/04/01 07:46:22;;;;;;;12.20;6.73;;;17.40;72.10;;;;;;5093879;28;20431;-78
2021/04/01 07:48:51;;;;;;;15.77;6.10;;;17.80;72.30;;;;;;5093688;28;20828;-78
2021/04/01 07:51:31;;;;;;;7.70;5.37;;;18.20;69.50;;;;;;5094072;28;20872;-80
2021/04/01 07:53:59;;;;;;;7.00;4.97;;;18.70;70.10;;;;;;5093844;28;20537;-78
2021/04/01 07:56:30;;;;;;;7.80;5.67;;;19.10;69.10;;;;;;5094026;28;20412;-79
2021/04/01 07:59:17;;;;;;;6.67;5.10;;;19.40;68.80;;;;;;5093392;28;20998;-79
2021/04/01 08:01:56;;;;;;;8.53;5.37;;;19.60;68.90;;;;;;5093600;28;20511;-79
2021/04/01 08:04:22;;;;;;;6.30;4.53;;;20.00;68.50;;;;;;5093243;28;20949;-78
2021/04/01 08:06:49;;;;;;;10.40;3.23;;;20.10;66.60;;;;;;5093074;28;20475;-79
2021/04/01 08:09:19;;;;;;;9.80;7.50;;;20.30;60.30;;;;;;5093420;28;20973;-79
2021/04/01 08:11:48;;;;;;;5.63;4.33;;;20.50;62.80;;;;;;5093523;28;20465;-79
2021/04/01 08:14:18;;;;;;;5.00;3.30;;;20.70;61.70;;;;;;5093503;28;20446;-79
2021/04/01 08:16:50;;;;;;;5.87;4.40;;;20.70;59.00;;;;;;5093550;28;20462;-79
2021/04/01 08:19:20;;;;;;;3.80;3.50;;;20.90;59.70;;;;;;5093376;28;20533;-79
2021/04/01 08:21:49;;;;;;;3.50;3.20;;;21.00;58.50;;;;;;5093417;28;20439;-79
2021/04/01 08:24:20;;;;;;;3.40;3.00;;;21.10;57.80;;;;;;5092930;28;20939;-79
2021/04/01 08:27:02;;;;;;;3.20;3.00;;;21.10;56.00;;;;;;5092494;28;20464;-79
2021/04/01 08:30:35;;;;;;;4.80;2.37;;;21.20;56.80;;;;;;5092767;28;21027;-78
2021/04/01 08:33:06;;;;;;;2.10;2.00;;;21.30;56.50;;;;;;5092676;28;20478;-79
2021/04/01 08:35:33;;;;;;;3.33;2.80;;;21.60;53.80;;;;;;5093279;28;20518;-79
2021/04/01 08:38:10;;;;;;;3.57;3.37;;;22.10;54.20;;;;;;5093220;28;20431;-79
2021/04/01 08:40:37;;;;;;;4.27;2.67;;;22.60;53.40;;;;;;5093291;28;20439;-80
2021/04/01 08:43:34;;;;;;;3.07;2.80;;;22.80;52.20;;;;;;5092938;28;20782;-78
2021/04/01 08:46:23;;;;;;;6.53;2.80;;;22.90;50.10;;;;;;5092915;28;20201;-78
2021/04/01 08:49:00;;;;;;;4.30;2.70;;;23.10;50.00;;;;;;5093034;28;20532;-78
2021/04/01 08:51:58;;;;;;;4.97;2.55;;;23.40;49.70;;;;;;5093195;28;20276;-78
2021/04/01 08:54:34;;;;;;;3.80;2.63;;;23.70;49.60;;;;;;5090198;28;20201;-78
2021/04/01 08:57:08;;;;;;;2.83;2.65;;;24.20;48.80;;;;;;5092857;28;20181;-78
2021/04/01 08:59:46;;;;;;;2.42;2.22;;;24.70;48.00;;;;;;5092672;28;20296;-79
2021/04/01 09:02:13;;;;;;;4.50;3.15;;;25.50;47.70;;;;;;5092833;28;20671;-78
2021/04/01 09:04:47;;;;;;;4.03;2.95;;;26.20;45.10;;;;;;5092688;28;20190;-79
2021/04/01 09:07:18;;;;;;;3.22;2.65;;;26.50;45.00;;;;;;5092569;28;20206;-78
2021/04/01 09:09:50;;;;;;;4.03;3.10;;;27.10;44.50;;;;;;5092670;28;20245;-80
2021/04/01 09:12:19;;;;;;;3.67;2.80;;;28.20;42.70;;;;;;5093007;28;20213;-79
2021/04/01 09:14:56;;;;;;;3.17;2.75;;;28.70;42.00;;;;;;5092852;28;20186;-79
2021/04/01 09:17:29;;;;;;;3.50;3.20;;;29.50;40.10;;;;;;5092695;28;20191;-79
2021/04/01 09:19:57;;;;;;;2.65;2.45;;;30.30;39.50;;;;;;5094322;28;20308;-80
2021/04/01 09:22:26;;;;;;;3.30;2.75;;;30.60;37.40;;;;;;5096223;28;20207;-80
2021/04/01 09:24:56;;;;;;;2.42;2.22;;;30.30;37.30;;;;;;5096236;28;20206;-79
2021/04/01 09:27:23;;;;;;;10.65;2.45;;;30.30;37.60;;;;;;5095931;28;20214;-80
2021/04/01 09:30:00;;;;;;;3.63;2.40;;;29.90;37.10;;;;;;5095842;28;20210;-79
2021/04/01 09:32:27;;;;;;;4.25;2.90;;;29.80;37.20;;;;;;5095981;28;20547;-79
2021/04/01 09:34:57;;;;;;;5.05;3.50;;;29.50;37.10;;;;;;5096281;28;20188;-80
2021/04/01 09:37:24;;;;;;;3.70;2.88;;;29.30;37.30;;;;;;5096195;28;20569;-79
2021/04/01 09:39:54;;;;;;;4.80;3.10;;;29.30;36.90;;;;;;5095753;28;20743;-79
2021/04/01 09:42:21;;;;;;;3.20;2.90;;;28.70;38.00;;;;;;5095831;28;20192;-79
2021/04/01 09:44:52;;;;;;;4.95;2.97;;;28.30;39.30;;;;;;5096076;28;20193;-78
2021/04/01 09:47:27;;;;;;;3.88;3.55;;;28.10;39.90;;;;;;5095459;28;20237;-78
2021/04/01 09:50:01;;;;;;;6.05;2.97;;;28.50;39.00;;;;;;5095903;28;20224;-78
2021/04/01 09:52:29;;;;;;;3.20;2.97;;;28.60;38.70;;;;;;5095878;28;20180;-78
2021/04/01 09:54:58;;;;;;;3.42;2.72;;;28.60;38.40;;;;;;5095905;28;20197;-78
2021/04/01 09:57:43;;;;;;;2.90;2.70;;;28.30;39.30;;;;;;5095872;28;20187;-78
2021/04/01 10:00:22;;;;;;;2.95;2.75;;;28.60;38.90;;;;;;5095628;28;20638;-78
2021/04/01 10:03:04;;;;;;;2.80;2.60;;;29.20;38.60;;;;;;5095806;28;20196;-78
2021/04/01 10:05:41;;;;;;;3.08;2.78;;;29.80;37.60;;;;;;5095439;28;20547;-78
2021/04/01 10:08:10;;;;;;;4.22;2.75;;;30.10;37.30;;;;;;5095181;28;20729;-79
2021/04/01 10:10:42;;;;;;;5.40;3.03;;;30.40;36.50;;;;;;5095609;28;20197;-78
2021/04/01 10:13:20;;;;;;;4.22;3.10;;;30.50;35.90;;;;;;5095482;28;20191;-79
2021/04/01 10:15:46;;;;;;;3.45;3.00;;;30.60;36.00;;;;;;5095330;28;20208;-79
2021/04/01 10:18:17;;;;;;;3.17;2.58;;;30.50;36.70;;;;;;5095281;28;20232;-79
2021/04/01 10:20:50;;;;;;;5.88;2.60;;;30.70;36.60;;;;;;5095108;28;20272;-79
2021/04/01 10:23:18;;;;;;;2.80;2.70;;;31.10;36.10;;;;;;5094898;28;20677;-79
2021/04/01 10:25:50;;;;;;;4.72;2.92;;;30.90;33.90;;;;;;5095195;28;20182;-79
2021/04/01 10:28:35;;;;;;;4.63;2.78;;;31.70;34.80;;;;;;5095121;28;20294;-79
2021/04/01 10:31:10;;;;;;;3.00;2.80;;;32.40;34.10;;;;;;5094655;28;20237;-79
2021/04/01 10:33:42;;;;;;;3.78;2.78;;;33.00;32.40;;;;;;5095127;28;20199;-79
2021/04/01 10:36:09;;;;;;;3.05;2.35;;;33.50;33.40;;;;;;5094770;28;20189;-79
2021/04/01 10:38:36;;;;;;;3.13;2.67;;;33.50;32.00;;;;;;5095123;28;20219;-80
2021/04/01 10:41:16;;;;;;;2.55;2.45;;;33.30;32.50;;;;;;5094983;28;20200;-79
2021/04/01 10:43:44;;;;;;;4.38;3.03;;;33.20;32.00;;;;;;5094685;28;20192;-80
2021/04/01 10:46:16;;;;;;;3.55;3.35;;;33.50;31.90;;;;;;5094762;28;20225;-80
2021/04/01 10:48:48;;;;;;;2.95;2.75;;;33.40;31.70;;;;;;5094849;28;20226;-79
2021/04/01 10:51:16;;;;;;;3.33;2.47;;;34.30;30.40;;;;;;5094597;28;20185;-79
2021/04/01 10:53:44;;;;;;;3.15;2.53;;;34.90;29.70;;;;;;5094553;28;20564;-80
2021/04/01 10:56:13;;;;;;;3.42;2.50;;;35.80;29.30;;;;;;5094789;28;20182;-79
2021/04/01 10:58:51;;;;;;;2.90;2.67;;;35.70;28.90;;;;;;5094502;28;20229;-80
2021/04/01 11:01:20;;;;;;;3.20;2.90;;;36.10;29.10;;;;;;5094338;28;20699;-80
2021/04/01 11:03:50;;;;;;;6.60;3.00;;;36.50;28.00;;;;;;5094536;28;20194;-79
2021/04/01 11:06:17;;;;;;;2.50;2.33;;;36.50;28.60;;;;;;5094440;28;20625;-79
2021/04/01 11:08:46;;;;;;;4.93;2.90;;;35.30;29.20;;;;;;5093932;28;20605;-79
2021/04/01 11:11:14;;;;;;;2.97;2.78;;;34.20;30.50;;;;;;5094391;28;20611;-79
2021/04/01 11:13:42;;;;;;;2.33;2.20;;;32.80;30.90;;;;;;5094403;28;20194;-79
2021/04/01 11:16:10;;;;;;;2.95;2.33;;;31.80;32.20;;;;;;5094268;28;20196;-79
2021/04/01 11:18:39;;;;;;;2.53;2.42;;;30.90;34.50;;;;;;5094066;28;20217;-78
2021/04/01 11:21:06;;;;;;;3.22;2.05;;;30.10;34.60;;;;;;5094100;28;20607;-79
2021/04/01 11:23:34;;;;;;;2.30;2.10;;;29.50;35.70;;;;;;5094209;28;20198;-79
2021/04/01 11:26:03;;;;;;;3.25;2.95;;;29.00;35.70;;;;;;5094048;28;20193;-79
2021/04/01 11:28:34;;;;;;;2.03;1.88;;;28.50;37.50;;;;;;5094038;28;20276;-78
2021/04/01 11:31:01;;;;;;;2.78;2.55;;;28.30;36.70;;;;;;5093992;28;20183;-79
2021/04/01 11:33:28;;;;;;;2.40;2.20;;;28.10;37.40;;;;;;5094137;28;20187;-78
2021/04/01 11:36:05;;;;;;;3.63;3.33;;;27.80;37.30;;;;;;5094008;28;20208;-79
2021/04/01 11:38:38;;;;;;;3.30;2.28;;;27.70;37.90;;;;;;5093976;28;20588;-79
2021/04/01 11:41:07;;;;;;;2.42;2.30;;;27.60;37.60;;;;;;5093750;28;20243;-79
2021/04/01 11:43:35;;;;;;;2.78;2.53;;;27.50;37.70;;;;;;5093449;28;20201;-79
2021/04/01 11:46:21;;;;;;;3.22;2.45;;;27.60;37.80;;;;;;5093315;28;20589;-79
2021/04/01 11:48:48;;;;;;;3.30;2.92;;;27.50;38.50;;;;;;5093421;28;20720;-79
2021/04/01 11:51:22;;;;;;;2.05;1.88;;;27.30;37.90;;;;;;5093706;28;20188;-78
2021/04/01 11:53:48;;;;;;;3.72;2.50;;;27.10;38.60;;;;;;5093794;28;20250;-78
2021/04/01 11:56:16;;;;;;;2.05;1.95;;;27.10;38.00;;;;;;5093334;28;20672;-79
2021/04/01 11:58:42;;;;;;;3.15;2.28;;;27.00;38.50;;;;;;5093674;28;20278;-78
2021/04/01 12:01:12;;;;;;;2.55;2.35;;;26.80;38.50;;;;;;5093687;28;20201;-78
2021/04/01 12:03:52;;;;;;;2.28;2.08;;;26.70;38.30;;;;;;5093714;28;20197;-78
2021/04/01 12:06:19;;;;;;;2.88;2.15;;;26.50;38.30;;;;;;5093341;28;20295;-79
2021/04/01 12:08:46;;;;;;;2.38;2.17;;;26.10;39.00;;;;;;5093527;28;20308;-79
2021/04/01 12:11:12;;;;;;;2.55;2.17;;;25.80;38.90;;;;;;5093114;28;20203;-78
2021/04/01 12:13:39;;;;;;;2.08;1.98;;;25.30;39.60;;;;;;5093155;28;20656;-79
2021/04/01 12:16:15;;;;;;;1.92;1.83;;;25.00;40.00;;;;;;5093176;28;20178;-78
2021/04/01 12:18:43;;;;;;;1.80;1.70;;;24.90;41.20;;;;;;5093270;28;20734;-78
2021/04/01 12:21:09;;;;;;;1.45;1.20;;;24.90;41.10;;;;;;5093452;28;20218;-79
2021/04/01 12:23:44;;;;;;;3.33;1.85;;;25.00;40.60;;;;;;5093357;28;20238;-78
2021/04/01 12:26:11;;;;;;;2.38;1.65;;;24.90;40.90;;;;;;5092673;28;20558;-79
2021/04/01 12:28:37;;;;;;;2.00;1.50;;;25.00;40.80;;;;;;5093188;28;20225;-78
2021/04/01 12:31:10;;;;;;;2.00;1.90;;;25.10;40.50;;;;;;5093188;28;20546;-78
2021/04/01 12:33:47;;;;;;;1.67;1.58;;;25.10;40.00;;;;;;5093112;28;20228;-79
2021/04/01 12:36:14;;;;;;;1.77;1.60;;;25.00;39.70;;;;;;5093074;28;20201;-79
2021/04/01 12:38:44;;;;;;;1.77;1.60;;;24.90;39.90;;;;;;5093063;28;20225;-79
2021/04/01 12:41:22;;;;;;;1.70;1.60;;;24.70;40.40;;;;;;5092958;28;20250;-79
2021/04/01 12:43:49;;;;;;;2.27;2.17;;;24.50;41.70;;;;;;5092808;28;20181;-79
2021/04/01 12:46:16;;;;;;;1.80;1.70;;;24.30;42.10;;;;;;5092690;28;20184;-79
2021/04/01 12:48:44;;;;;;;2.87;2.10;;;24.20;41.90;;;;;;5092515;28;20217;-78
2021/04/01 12:51:11;;;;;;;3.70;1.77;;;24.20;41.80;;;;;;5092965;28;20198;-79
2021/04/01 12:53:38;;;;;;;2.60;1.80;;;24.30;42.30;;;;;;5094917;28;20186;-78
2021/04/01 12:56:11;;;;;;;3.28;2.92;;;24.30;41.30;;;;;;5096912;28;20208;-79
2021/04/01 12:58:40;;;;;;;3.33;1.90;;;24.30;41.80;;;;;;5096905;28;20282;-78
2021/04/01 13:01:28;;;;;;;3.23;1.80;;;24.20;41.30;;;;;;5096938;28;20554;-78
2021/04/01 13:03:55;;;;;;;4.93;1.70;;;24.20;40.50;;;;;;5096471;28;20205;-78
2021/04/01 13:06:23;;;;;;;4.20;2.00;;;24.20;41.40;;;;;;5097038;28;20204;-80
2021/04/01 13:08:55;;;;;;;2.90;1.83;;;24.10;41.20;;;;;;5096939;28;20308;-79
2021/04/01 13:11:25;;;;;;;1.27;1.17;;;24.10;42.20;;;;;;5096519;28;20554;-79
2021/04/01 13:13:51;;;;;;;1.80;1.60;;;24.10;41.30;;;;;;5096818;28;20185;-79
2021/04/01 13:16:19;;;;;;;2.30;2.10;;;23.90;42.70;;;;;;5096688;28;20205;-79
2021/04/01 13:18:45;;;;;;;5.13;1.83;;;24.00;41.10;;;;;;5096255;28;20467;-79
2021/04/01 13:24:03;;;;;;;2.10;1.77;;;24.10;40.60;;;;;;5090788;28;20661;-79
2021/04/01 13:26:31;;;;;;;3.53;1.70;;;24.00;41.00;;;;;;5096390;28;20300;-79
2021/04/01 13:28:58;;;;;;;4.80;2.77;;;24.20;41.60;;;;;;5096211;28;20230;-79
2021/04/01 13:31:34;;;;;;;2.27;2.07;;;24.30;41.50;;;;;;5096348;28;20193;-79
2021/04/01 13:34:03;;;;;;;1.83;1.73;;;24.40;40.40;;;;;;5096228;28;20193;-79
2021/04/01 13:36:31;;;;;;;2.27;2.07;;;24.50;40.60;;;;;;5096360;28;20201;-79
2021/04/01 13:38:58;;;;;;;4.43;2.23;;;24.60;40.40;;;;;;5096408;28;20221;-79
2021/04/01 13:41:35;;;;;;;2.42;2.22;;;24.60;41.40;;;;;;5095176;28;20205;-79
2021/04/01 13:44:01;;;;;;;10.67;3.10;;;24.70;41.10;;;;;;5096203;28;20185;-79
2021/04/01 13:46:29;;;;;;;2.22;2.10;;;24.60;40.40;;;;;;5095960;28;20316;-79